sensor_id;sensor_type;location;lat;lon;timestamp;pressure;altitude;pressure_sealevel;temperature;humidity
10460;BME280;54412;51.206;6.888;2022-07-17T00:01:46;101953.38;;;18.82;48.49
10460;BME280;54412;51.206;6.888;2022-07-17T00:04:12;101958.63;;;18.84;48.61
10460;BME280;54412;51.206;6.888;2022-07-17T00:06:38;101952.34;;;18.85;48.62
10460;BME280;54412;51.206;6.888;2022-07-17T00:09:03;101953.47;;;18.81;48.87
10460;BME280;54412;51.206;6.888;2022-07-17T00:11:29;101953.19;;;18.85;48.76
10460;BME280;54412;51.206;6.888;2022-07-17T00:13:55;101951.19;;;18.89;48.91
10460;BME280;54412;51.206;6.888;2022-07-17T00:16:21;101944.69;;;18.78;49.26
10460;BME280;54412;51.206;6.888;2022-07-17T00:18:48;101943.94;;;18.76;49.59
10460;BME280;54412;51.206;6.888;2022-07-17T00:21:13;101949.69;;;18.70;49.60
10460;BME280;54412;51.206;6.888;2022-07-17T00:23:39;101951.19;;;18.60;49.77
10460;BME280;54412;51.206;6.888;2022-07-17T00:26:05;101945.75;;;18.48;49.96
10460;BME280;54412;51.206;6.888;2022-07-17T00:28:31;101937.66;;;18.63;49.42
10460;BME280;54412;51.206;6.888;2022-07-17T00:30:56;101943.56;;;18.54;49.95
10460;BME280;54412;51.206;6.888;2022-07-17T00:33:22;101935.66;;;18.67;49.39
10460;BME280;54412;51.206;6.888;2022-07-17T00:35:48;101936.69;;;18.50;49.44
10460;BME280;54412;51.206;6.888;2022-07-17T00:38:14;101939.66;;;18.46;49.57
10460;BME280;54412;51.206;6.888;2022-07-17T00:40:41;101937.06;;;18.44;49.48
10460;BME280;54412;51.206;6.888;2022-07-17T00:43:06;101933.16;;;18.50;49.58
10460;BME280;54412;51.206;6.888;2022-07-17T00:45:32;101934.59;;;18.55;49.59
10460;BME280;54412;51.206;6.888;2022-07-17T00:48:04;101935.06;;;18.48;50.07
10460;BME280;54412;51.206;6.888;2022-07-17T00:50:35;101933.41;;;18.31;50.96
10460;BME280;54412;51.206;6.888;2022-07-17T00:53:02;101933.91;;;18.24;51.36
10460;BME280;54412;51.206;6.888;2022-07-17T00:55:29;101942.06;;;18.21;51.52
10460;BME280;54412;51.206;6.888;2022-07-17T00:57:57;101939.78;;;18.15;51.82
10460;BME280;54412;51.206;6.888;2022-07-17T01:00:23;101949.50;;;18.02;52.11
10460;BME280;54412;51.206;6.888;2022-07-17T01:02:52;101944.81;;;18.05;51.80
10460;BME280;54412;51.206;6.888;2022-07-17T01:05:20;101944.38;;;18.13;51.60
10460;BME280;54412;51.206;6.888;2022-07-17T01:07:47;101944.38;;;18.13;51.46
10460;BME280;54412;51.206;6.888;2022-07-17T01:10:15;101946.59;;;17.91;51.68
10460;BME280;54412;51.206;6.888;2022-07-17T01:12:46;101944.28;;;17.85;52.21
10460;BME280;54412;51.206;6.888;2022-07-17T01:15:15;101952.25;;;18.00;51.89
10460;BME280;54412;51.206;6.888;2022-07-17T01:17:42;101948.69;;;17.86;52.29
10460;BME280;54412;51.206;6.888;2022-07-17T01:20:09;101942.78;;;17.81;52.24
10460;BME280;54412;51.206;6.888;2022-07-17T01:22:50;101950.41;;;17.87;52.08
10460;BME280;54412;51.206;6.888;2022-07-17T01:25:22;101944.91;;;17.74;52.32
10460;BME280;54412;51.206;6.888;2022-07-17T01:27:49;101951.09;;;17.60;52.71
10460;BME280;54412;51.206;6.888;2022-07-17T01:30:14;101949.44;;;17.58;53.06
10460;BME280;54412;51.206;6.888;2022-07-17T01:32:42;101952.63;;;17.64;52.86
10460;BME280;54412;51.206;6.888;2022-07-17T01:35:10;101951.06;;;17.90;52.17
10460;BME280;54412;51.206;6.888;2022-07-17T01:37:38;101947.19;;;17.66;52.50
10460;BME280;54412;51.206;6.888;2022-07-17T01:40:05;101944.09;;;17.73;52.61
10460;BME280;54412;51.206;6.888;2022-07-17T01:42:31;101946.00;;;17.40;53.41
10460;BME280;54412;51.206;6.888;2022-07-17T01:44:58;101949.09;;;17.33;53.44
10460;BME280;54412;51.206;6.888;2022-07-17T01:47:24;101942.75;;;17.35;53.31
10460;BME280;54412;51.206;6.888;2022-07-17T01:49:53;101947.03;;;17.22;53.72
10460;BME280;54412;51.206;6.888;2022-07-17T01:52:20;101939.53;;;17.29;53.46
10460;BME280;54412;51.206;6.888;2022-07-17T01:54:47;101937.66;;;17.31;53.38
10460;BME280;54412;51.206;6.888;2022-07-17T01:57:13;101943.84;;;17.31;53.47
10460;BME280;54412;51.206;6.888;2022-07-17T01:59:39;101940.84;;;17.37;53.33
10460;BME280;54412;51.206;6.888;2022-07-17T02:02:07;101931.03;;;17.53;53.14
10460;BME280;54412;51.206;6.888;2022-07-17T02:04:35;101933.44;;;17.42;53.43
10460;BME280;54412;51.206;6.888;2022-07-17T02:07:02;101931.03;;;17.53;52.96
10460;BME280;54412;51.206;6.888;2022-07-17T02:09:28;101930.53;;;17.47;52.94
10460;BME280;54412;51.206;6.888;2022-07-17T02:11:54;101932.94;;;17.36;53.22
10460;BME280;54412;51.206;6.888;2022-07-17T02:14:21;101928.28;;;17.39;53.15
10460;BME280;54412;51.206;6.888;2022-07-17T02:16:47;101935.50;;;17.37;53.01
10460;BME280;54412;51.206;6.888;2022-07-17T02:19:12;101938.69;;;17.13;53.66
10460;BME280;54412;51.206;6.888;2022-07-17T02:21:38;101929.16;;;16.93;54.29
10460;BME280;54412;51.206;6.888;2022-07-17T02:24:04;101924.50;;;16.97;54.14
10460;BME280;54412;51.206;6.888;2022-07-17T02:26:30;101930.72;;;16.97;54.11
10460;BME280;54412;51.206;6.888;2022-07-17T02:28:56;101927.09;;;16.98;54.03
10460;BME280;54412;51.206;6.888;2022-07-17T02:31:22;101920.47;;;17.21;53.60
10460;BME280;54412;51.206;6.888;2022-07-17T02:33:47;101929.22;;;17.38;53.21
10460;BME280;54412;51.206;6.888;2022-07-17T02:36:13;101930.97;;;17.24;53.19
10460;BME280;54412;51.206;6.888;2022-07-17T02:38:39;101926.50;;;17.09;53.52
10460;BME280;54412;51.206;6.888;2022-07-17T02:41:05;101935.25;;;17.11;53.47
10460;BME280;54412;51.206;6.888;2022-07-17T02:43:31;101931.56;;;17.13;53.49
10460;BME280;54412;51.206;6.888;2022-07-17T02:45:57;101933.03;;;16.88;54.18
10460;BME280;54412;51.206;6.888;2022-07-17T02:48:23;101929.16;;;16.93;53.78
10460;BME280;54412;51.206;6.888;2022-07-17T02:50:49;101926.91;;;16.86;54.12
10460;BME280;54412;51.206;6.888;2022-07-17T02:53:14;101928.56;;;16.88;53.93
10460;BME280;54412;51.206;6.888;2022-07-17T02:55:40;101932.03;;;16.57;55.06
10460;BME280;54412;51.206;6.888;2022-07-17T02:58:06;101939.72;;;16.79;54.71
10460;BME280;54412;51.206;6.888;2022-07-17T03:00:32;101943.50;;;16.75;54.35
10460;BME280;54412;51.206;6.888;2022-07-17T03:02:57;101944.88;;;16.66;54.64
10460;BME280;54412;51.206;6.888;2022-07-17T03:05:23;101944.59;;;16.55;55.12
10460;BME280;54412;51.206;6.888;2022-07-17T03:07:49;101935.66;;;16.56;55.31
10460;BME280;54412;51.206;6.888;2022-07-17T03:10:15;101939.88;;;16.60;55.03
10460;BME280;54412;51.206;6.888;2022-07-17T03:12:42;101940.59;;;16.80;54.96
10460;BME280;54412;51.206;6.888;2022-07-17T03:15:08;101951.75;;;16.70;54.81
10460;BME280;54412;51.206;6.888;2022-07-17T03:17:35;101953.34;;;16.57;55.18
10460;BME280;54412;51.206;6.888;2022-07-17T03:20:02;101952.25;;;16.61;54.82
10460;BME280;54412;51.206;6.888;2022-07-17T03:22:27;101955.09;;;16.58;54.98
10460;BME280;54412;51.206;6.888;2022-07-17T03:24:53;101958.38;;;16.46;55.52
10460;BME280;54412;51.206;6.888;2022-07-17T03:27:19;101961.34;;;16.57;55.51
10460;BME280;54412;51.206;6.888;2022-07-17T03:29:45;101955.53;;;16.66;54.98
10460;BME280;54412;51.206;6.888;2022-07-17T03:32:10;101956.03;;;16.40;55.71
10460;BME280;54412;51.206;6.888;2022-07-17T03:34:37;101961.13;;;16.45;55.80
10460;BME280;54412;51.206;6.888;2022-07-17T03:37:04;101960.59;;;16.38;55.65
10460;BME280;54412;51.206;6.888;2022-07-17T03:39:30;101956.19;;;16.37;56.11
10460;BME280;54412;51.206;6.888;2022-07-17T03:41:56;101960.53;;;16.73;54.98
10460;BME280;54412;51.206;6.888;2022-07-17T03:44:23;101964.97;;;16.56;55.29
10460;BME280;54412;51.206;6.888;2022-07-17T03:46:49;101962.69;;;16.32;56.07
10460;BME280;54412;51.206;6.888;2022-07-17T03:49:15;101966.84;;;16.54;55.64
10460;BME280;54412;51.206;6.888;2022-07-17T03:51:41;101964.41;;;16.50;55.39
10460;BME280;54412;51.206;6.888;2022-07-17T03:54:07;101971.81;;;16.28;56.17
10460;BME280;54412;51.206;6.888;2022-07-17T03:56:33;101968.03;;;16.49;55.51
10460;BME280;54412;51.206;6.888;2022-07-17T03:58:59;101967.31;;;16.28;56.10
10460;BME280;54412;51.206;6.888;2022-07-17T04:01:24;101961.53;;;16.54;55.46
10460;BME280;54412;51.206;6.888;2022-07-17T04:03:50;101957.78;;;16.74;54.77
10460;BME280;54412;51.206;6.888;2022-07-17T04:06:16;101950.97;;;16.68;55.11
10460;BME280;54412;51.206;6.888;2022-07-17T04:08:41;101968.66;;;16.69;54.86
10460;BME280;54412;51.206;6.888;2022-07-17T04:11:07;101964.31;;;16.84;54.35
10460;BME280;54412;51.206;6.888;2022-07-17T04:13:33;101965.97;;;16.54;55.04
10460;BME280;54412;51.206;6.888;2022-07-17T04:15:59;101970.34;;;16.88;54.71
10460;BME280;54412;51.206;6.888;2022-07-17T04:18:33;101964.53;;;16.64;54.96
10460;BME280;54412;51.206;6.888;2022-07-17T04:21:03;101968.25;;;16.61;55.15
10460;BME280;54412;51.206;6.888;2022-07-17T04:23:30;101959.88;;;16.52;55.49
10460;BME280;54412;51.206;6.888;2022-07-17T04:25:57;101966.44;;;16.45;55.82
10460;BME280;54412;51.206;6.888;2022-07-17T04:28:23;101956.41;;;16.67;55.53
10460;BME280;54412;51.206;6.888;2022-07-17T04:30:49;101959.56;;;16.73;55.41
10460;BME280;54412;51.206;6.888;2022-07-17T04:33:15;101968.84;;;16.66;55.68
10460;BME280;54412;51.206;6.888;2022-07-17T04:35:40;101957.59;;;16.61;55.52
10460;BME280;54412;51.206;6.888;2022-07-17T04:38:07;101960.44;;;16.74;55.21
10460;BME280;54412;51.206;6.888;2022-07-17T04:40:35;101969.66;;;16.84;55.15
10460;BME280;54412;51.206;6.888;2022-07-17T04:43:02;101974.00;;;16.69;55.74
10460;BME280;54412;51.206;6.888;2022-07-17T04:45:28;101974.19;;;16.66;55.72
10460;BME280;54412;51.206;6.888;2022-07-17T04:47:54;101981.28;;;16.66;55.81
10460;BME280;54412;51.206;6.888;2022-07-17T04:50:20;101976.81;;;16.84;55.73
10460;BME280;54412;51.206;6.888;2022-07-17T04:52:46;101980.16;;;16.87;55.71
10460;BME280;54412;51.206;6.888;2022-07-17T04:55:12;101970.59;;;16.99;55.53
10460;BME280;54412;51.206;6.888;2022-07-17T04:57:39;101975.50;;;16.91;55.56
10460;BME280;54412;51.206;6.888;2022-07-17T05:00:08;101978.00;;;16.78;56.42
10460;BME280;54412;51.206;6.888;2022-07-17T05:02:34;101970.00;;;17.09;55.66
10460;BME280;54412;51.206;6.888;2022-07-17T05:05:00;101975.78;;;17.17;55.61
10460;BME280;54412;51.206;6.888;2022-07-17T05:07:26;101973.63;;;17.24;55.09
10460;BME280;54412;51.206;6.888;2022-07-17T05:09:52;101976.28;;;17.08;55.52
10460;BME280;54412;51.206;6.888;2022-07-17T05:12:18;101977.50;;;17.34;54.96
10460;BME280;54412;51.206;6.888;2022-07-17T05:14:44;101981.78;;;17.36;55.06
10460;BME280;54412;51.206;6.888;2022-07-17T05:17:10;101990.50;;;17.55;54.66
10460;BME280;54412;51.206;6.888;2022-07-17T05:19:36;101995.47;;;17.61;54.76
10460;BME280;54412;51.206;6.888;2022-07-17T05:22:04;101991.81;;;17.48;54.98
10460;BME280;54412;51.206;6.888;2022-07-17T05:24:30;101992.31;;;17.55;54.93
10460;BME280;54412;51.206;6.888;2022-07-17T05:26:56;101992.72;;;17.63;53.79
10460;BME280;54412;51.206;6.888;2022-07-17T05:29:22;101991.78;;;17.94;53.22
10460;BME280;54412;51.206;6.888;2022-07-17T05:31:48;102001.56;;;18.09;52.30
10460;BME280;54412;51.206;6.888;2022-07-17T05:34:14;102005.69;;;18.14;52.33
10460;BME280;54412;51.206;6.888;2022-07-17T05:36:40;102012.03;;;17.98;52.82
10460;BME280;54412;51.206;6.888;2022-07-17T05:39:06;102028.13;;;17.96;53.19
10460;BME280;54412;51.206;6.888;2022-07-17T05:41:31;102023.09;;;17.92;53.38
10460;BME280;54412;51.206;6.888;2022-07-17T05:43:57;102019.78;;;18.02;53.73
10460;BME280;54412;51.206;6.888;2022-07-17T05:46:23;102018.63;;;18.06;53.73
10460;BME280;54412;51.206;6.888;2022-07-17T05:48:48;102015.56;;;17.98;52.65
10460;BME280;54412;51.206;6.888;2022-07-17T05:51:14;102007.59;;;18.42;51.49
10460;BME280;54412;51.206;6.888;2022-07-17T05:53:40;102010.19;;;18.43;50.41
10460;BME280;54412;51.206;6.888;2022-07-17T05:56:06;102017.94;;;18.32;50.90
10460;BME280;54412;51.206;6.888;2022-07-17T05:58:31;102024.88;;;18.64;49.79
10460;BME280;54412;51.206;6.888;2022-07-17T06:00:57;102020.41;;;18.21;50.77
10460;BME280;54412;51.206;6.888;2022-07-17T06:03:23;102020.59;;;18.18;51.04
10460;BME280;54412;51.206;6.888;2022-07-17T06:05:49;102025.66;;;18.52;50.54
10460;BME280;54412;51.206;6.888;2022-07-17T06:08:14;102018.19;;;18.86;49.02
10460;BME280;54412;51.206;6.888;2022-07-17T06:10:40;102018.69;;;19.06;47.79
10460;BME280;54412;51.206;6.888;2022-07-17T06:13:06;102023.56;;;18.86;47.79
10460;BME280;54412;51.206;6.888;2022-07-17T06:15:31;102016.97;;;18.77;48.09
10460;BME280;54412;51.206;6.888;2022-07-17T06:18:04;102019.94;;;18.87;47.78
10460;BME280;54412;51.206;6.888;2022-07-17T06:20:30;102017.63;;;18.95;47.81
10460;BME280;54412;51.206;6.888;2022-07-17T06:22:56;102014.59;;;18.87;48.31
10460;BME280;54412;51.206;6.888;2022-07-17T06:25:22;102012.19;;;18.96;48.43
10460;BME280;54412;51.206;6.888;2022-07-17T06:27:48;102006.81;;;18.96;48.81
10460;BME280;54412;51.206;6.888;2022-07-17T06:30:15;102015.63;;;18.98;48.37
10460;BME280;54412;51.206;6.888;2022-07-17T06:32:41;102021.34;;;19.06;48.08
10460;BME280;54412;51.206;6.888;2022-07-17T06:35:09;102005.50;;;19.17;47.96
10460;BME280;54412;51.206;6.888;2022-07-17T06:37:35;102003.00;;;19.14;47.53
10460;BME280;54412;51.206;6.888;2022-07-17T06:40:03;101999.69;;;18.97;48.25
10460;BME280;54412;51.206;6.888;2022-07-17T06:42:28;101992.34;;;18.86;48.97
10460;BME280;54412;51.206;6.888;2022-07-17T06:44:54;101998.75;;;18.98;48.61
10460;BME280;54412;51.206;6.888;2022-07-17T06:47:20;101989.53;;;19.16;48.44
10460;BME280;54412;51.206;6.888;2022-07-17T06:49:46;101987.38;;;19.49;47.62
10460;BME280;54412;51.206;6.888;2022-07-17T06:52:11;101989.28;;;19.47;48.04
10460;BME280;54412;51.206;6.888;2022-07-17T06:54:37;101990.31;;;19.58;47.91
10460;BME280;54412;51.206;6.888;2022-07-17T06:57:03;101989.69;;;20.07;45.67
10460;BME280;54412;51.206;6.888;2022-07-17T06:59:29;101999.22;;;19.59;46.32
10460;BME280;54412;51.206;6.888;2022-07-17T07:01:55;101990.50;;;19.55;46.71
10460;BME280;54412;51.206;6.888;2022-07-17T07:04:20;102005.56;;;19.70;46.72
10460;BME280;54412;51.206;6.888;2022-07-17T07:06:46;101996.91;;;19.79;46.03
10460;BME280;54412;51.206;6.888;2022-07-17T07:09:12;101993.53;;;20.03;46.19
10460;BME280;54412;51.206;6.888;2022-07-17T07:11:39;101990.38;;;20.23;45.21
10460;BME280;54412;51.206;6.888;2022-07-17T07:14:06;102004.97;;;19.92;45.19
10460;BME280;54412;51.206;6.888;2022-07-17T07:16:33;102003.72;;;19.98;45.59
10460;BME280;54412;51.206;6.888;2022-07-17T07:18:59;101995.88;;;19.95;45.61
10460;BME280;54412;51.206;6.888;2022-07-17T07:21:25;102003.34;;;19.90;46.34
10460;BME280;54412;51.206;6.888;2022-07-17T07:23:53;102003.50;;;20.27;46.01
10460;BME280;54412;51.206;6.888;2022-07-17T07:26:18;102000.72;;;20.41;45.91
10460;BME280;54412;51.206;6.888;2022-07-17T07:28:44;102001.66;;;20.40;44.81
10460;BME280;54412;51.206;6.888;2022-07-17T07:31:10;101988.47;;;20.62;44.82
10460;BME280;54412;51.206;6.888;2022-07-17T07:33:37;101993.50;;;20.67;45.28
10460;BME280;54412;51.206;6.888;2022-07-17T07:36:04;101999.94;;;20.77;45.22
10460;BME280;54412;51.206;6.888;2022-07-17T07:38:29;102000.81;;;20.90;44.91
10460;BME280;54412;51.206;6.888;2022-07-17T07:40:55;102004.31;;;21.03;43.22
10460;BME280;54412;51.206;6.888;2022-07-17T07:43:21;102002.25;;;21.19;43.18
10460;BME280;54412;51.206;6.888;2022-07-17T07:45:47;102006.94;;;21.05;43.83
10460;BME280;54412;51.206;6.888;2022-07-17T07:48:13;102003.63;;;21.25;43.47
10460;BME280;54412;51.206;6.888;2022-07-17T07:50:40;102010.53;;;21.16;42.60
10460;BME280;54412;51.206;6.888;2022-07-17T07:53:05;102013.81;;;21.32;43.42
10460;BME280;54412;51.206;6.888;2022-07-17T07:55:31;102012.16;;;21.55;42.33
10460;BME280;54412;51.206;6.888;2022-07-17T07:58:09;102021.56;;;21.60;42.63
10460;BME280;54412;51.206;6.888;2022-07-17T08:00:37;102025.59;;;21.78;43.08
10460;BME280;54412;51.206;6.888;2022-07-17T08:03:03;102030.44;;;21.97;42.25
10460;BME280;54412;51.206;6.888;2022-07-17T08:05:30;102038.72;;;21.70;41.76
10460;BME280;54412;51.206;6.888;2022-07-17T08:07:56;102033.97;;;21.74;41.98
10460;BME280;54412;51.206;6.888;2022-07-17T08:10:22;102036.59;;;21.63;41.82
10460;BME280;54412;51.206;6.888;2022-07-17T08:12:48;102030.19;;;21.89;41.21
10460;BME280;54412;51.206;6.888;2022-07-17T08:15:16;102031.81;;;22.03;41.41
10460;BME280;54412;51.206;6.888;2022-07-17T08:17:43;102033.91;;;22.10;41.80
10460;BME280;54412;51.206;6.888;2022-07-17T08:20:09;102039.88;;;22.03;41.30
10460;BME280;54412;51.206;6.888;2022-07-17T08:22:35;102031.63;;;22.17;41.05
10460;BME280;54412;51.206;6.888;2022-07-17T08:25:01;102031.56;;;22.06;40.67
10460;BME280;54412;51.206;6.888;2022-07-17T08:27:27;102033.09;;;22.21;40.63
10460;BME280;54412;51.206;6.888;2022-07-17T08:29:53;102040.66;;;22.50;40.80
10460;BME280;54412;51.206;6.888;2022-07-17T08:32:18;102042.88;;;22.56;40.11
10460;BME280;54412;51.206;6.888;2022-07-17T08:34:44;102031.28;;;22.78;40.28
10460;BME280;54412;51.206;6.888;2022-07-17T08:37:10;102045.47;;;22.69;38.97
10460;BME280;54412;51.206;6.888;2022-07-17T08:39:35;102046.25;;;22.47;39.71
10460;BME280;54412;51.206;6.888;2022-07-17T08:42:04;102048.13;;;22.58;39.64
10460;BME280;54412;51.206;6.888;2022-07-17T08:44:33;102054.66;;;23.00;39.56
10460;BME280;54412;51.206;6.888;2022-07-17T08:47:00;102047.94;;;23.27;39.43
10460;BME280;54412;51.206;6.888;2022-07-17T08:49:26;102052.69;;;23.46;39.38
10460;BME280;54412;51.206;6.888;2022-07-17T08:51:52;102035.44;;;23.48;38.38
10460;BME280;54412;51.206;6.888;2022-07-17T08:54:20;102040.78;;;23.70;37.04
10460;BME280;54412;51.206;6.888;2022-07-17T08:56:48;102035.03;;;23.64;36.86
10460;BME280;54412;51.206;6.888;2022-07-17T08:59:13;102031.88;;;23.59;37.33
10460;BME280;54412;51.206;6.888;2022-07-17T09:01:39;102030.91;;;23.60;36.74
10460;BME280;54412;51.206;6.888;2022-07-17T09:04:05;102031.41;;;23.85;37.41
10460;BME280;54412;51.206;6.888;2022-07-17T09:06:33;102029.31;;;23.89;36.50
10460;BME280;54412;51.206;6.888;2022-07-17T09:09:07;102030.38;;;24.09;36.65
10460;BME280;54412;51.206;6.888;2022-07-17T09:11:52;102029.63;;;24.18;36.14
10460;BME280;54412;51.206;6.888;2022-07-17T09:14:19;102036.63;;;24.09;35.91
10460;BME280;54412;51.206;6.888;2022-07-17T09:16:55;102027.75;;;24.18;36.78
10460;BME280;54412;51.206;6.888;2022-07-17T09:19:40;102027.78;;;24.39;36.20
10460;BME280;54412;51.206;6.888;2022-07-17T09:22:17;102029.75;;;24.37;36.20
10460;BME280;54412;51.206;6.888;2022-07-17T09:24:57;102029.28;;;24.73;36.04
10460;BME280;54412;51.206;6.888;2022-07-17T09:30:05;102027.44;;;24.53;35.18
10460;BME280;54412;51.206;6.888;2022-07-17T09:32:38;102026.09;;;24.89;35.50
10460;BME280;54412;51.206;6.888;2022-07-17T09:35:08;102027.31;;;25.05;35.29
10460;BME280;54412;51.206;6.888;2022-07-17T09:37:36;102025.00;;;25.01;34.90
10460;BME280;54412;51.206;6.888;2022-07-17T09:40:09;102025.97;;;25.20;35.00
10460;BME280;54412;51.206;6.888;2022-07-17T09:42:35;102018.28;;;25.25;34.26
10460;BME280;54412;51.206;6.888;2022-07-17T09:45:07;102026.19;;;25.08;34.55
10460;BME280;54412;51.206;6.888;2022-07-17T09:47:37;102026.94;;;25.19;34.99
10460;BME280;54412;51.206;6.888;2022-07-17T09:50:06;102016.38;;;25.46;34.82
10460;BME280;54412;51.206;6.888;2022-07-17T09:52:36;102024.94;;;25.61;33.91
10460;BME280;54412;51.206;6.888;2022-07-17T09:55:05;102023.06;;;25.52;33.67
10460;BME280;54412;51.206;6.888;2022-07-17T09:57:34;102021.59;;;25.38;34.37
10460;BME280;54412;51.206;6.888;2022-07-17T10:00:05;102023.75;;;25.44;34.41
10460;BME280;54412;51.206;6.888;2022-07-17T10:02:33;102023.22;;;25.60;33.65
10460;BME280;54412;51.206;6.888;2022-07-17T10:04:59;102019.53;;;25.61;32.68
10460;BME280;54412;51.206;6.888;2022-07-17T10:07:26;102018.56;;;25.91;32.71
10460;BME280;54412;51.206;6.888;2022-07-17T10:09:52;102013.56;;;25.76;32.94
10460;BME280;54412;51.206;6.888;2022-07-17T10:12:19;102017.41;;;25.83;33.13
10460;BME280;54412;51.206;6.888;2022-07-17T10:14:49;102024.09;;;25.89;32.71
10460;BME280;54412;51.206;6.888;2022-07-17T10:17:20;102025.00;;;26.09;32.17
10460;BME280;54412;51.206;6.888;2022-07-17T10:19:54;102030.66;;;26.25;32.10
10460;BME280;54412;51.206;6.888;2022-07-17T10:22:21;102029.38;;;26.00;32.75
10460;BME280;54412;51.206;6.888;2022-07-17T10:24:50;102020.75;;;26.06;32.37
10460;BME280;54412;51.206;6.888;2022-07-17T10:27:28;102027.84;;;26.17;30.97
10460;BME280;54412;51.206;6.888;2022-07-17T10:32:31;102025.69;;;26.11;31.64
10460;BME280;54412;51.206;6.888;2022-07-17T10:45:41;102028.81;;;25.97;33.42
10460;BME280;54412;51.206;6.888;2022-07-17T10:48:15;102030.81;;;26.23;32.98
10460;BME280;54412;51.206;6.888;2022-07-17T10:50:50;102017.84;;;26.27;32.91
10460;BME280;54412;51.206;6.888;2022-07-17T10:53:29;102034.91;;;26.46;32.62
10460;BME280;54412;51.206;6.888;2022-07-17T10:56:02;102033.06;;;26.47;31.56
10460;BME280;54412;51.206;6.888;2022-07-17T10:58:42;102024.53;;;26.32;31.55
10460;BME280;54412;51.206;6.888;2022-07-17T11:01:15;102019.44;;;26.20;31.07
10460;BME280;54412;51.206;6.888;2022-07-17T11:03:48;102028.56;;;26.19;31.35
10460;BME280;54412;51.206;6.888;2022-07-17T11:11:47;102010.91;;;26.24;32.65
10460;BME280;54412;51.206;6.888;2022-07-17T11:14:17;102016.91;;;26.64;33.03
10460;BME280;54412;51.206;6.888;2022-07-17T11:16:59;102016.56;;;26.40;30.71
10460;BME280;54412;51.206;6.888;2022-07-17T11:19:27;102010.44;;;26.29;32.65
10460;BME280;54412;51.206;6.888;2022-07-17T11:21:55;101997.97;;;26.64;32.37
10460;BME280;54412;51.206;6.888;2022-07-17T11:24:22;101993.47;;;27.02;32.29
10460;BME280;54412;51.206;6.888;2022-07-17T11:26:50;102000.53;;;27.12;32.00
10460;BME280;54412;51.206;6.888;2022-07-17T11:29:17;102005.41;;;27.09;30.81
10460;BME280;54412;51.206;6.888;2022-07-17T11:31:43;101994.94;;;26.87;30.60
10460;BME280;54412;51.206;6.888;2022-07-17T11:34:11;101998.81;;;27.11;31.73
10460;BME280;54412;51.206;6.888;2022-07-17T11:36:43;101990.75;;;27.29;31.04
10460;BME280;54412;51.206;6.888;2022-07-17T11:39:13;101987.22;;;27.46;30.48
10460;BME280;54412;51.206;6.888;2022-07-17T11:41:42;101978.50;;;27.34;29.88
10460;BME280;54412;51.206;6.888;2022-07-17T11:44:12;101984.19;;;27.31;29.58
10460;BME280;54412;51.206;6.888;2022-07-17T11:46:42;101985.28;;;27.38;30.53
10460;BME280;54412;51.206;6.888;2022-07-17T11:49:08;101979.03;;;27.38;30.87
10460;BME280;54412;51.206;6.888;2022-07-17T11:51:43;101979.75;;;27.75;29.31
10460;BME280;54412;51.206;6.888;2022-07-17T11:54:16;101981.97;;;27.44;30.45
10460;BME280;54412;51.206;6.888;2022-07-17T11:56:52;101978.94;;;27.47;29.78
10460;BME280;54412;51.206;6.888;2022-07-17T11:59:29;101985.53;;;27.45;28.87
10460;BME280;54412;51.206;6.888;2022-07-17T12:01:56;101985.75;;;27.34;29.40
10460;BME280;54412;51.206;6.888;2022-07-17T12:04:22;101975.25;;;27.48;29.58
10460;BME280;54412;51.206;6.888;2022-07-17T12:07:00;101980.81;;;27.47;30.23
10460;BME280;54412;51.206;6.888;2022-07-17T12:09:32;101976.25;;;27.47;29.38
10460;BME280;54412;51.206;6.888;2022-07-17T12:12:02;101970.13;;;27.80;29.60
10460;BME280;54412;51.206;6.888;2022-07-17T12:14:28;101977.19;;;27.56;28.63
10460;BME280;54412;51.206;6.888;2022-07-17T12:16:57;101978.34;;;27.26;27.92
10460;BME280;54412;51.206;6.888;2022-07-17T12:19:26;101975.13;;;27.13;28.82
10460;BME280;54412;51.206;6.888;2022-07-17T12:22:03;101974.94;;;27.24;29.44
10460;BME280;54412;51.206;6.888;2022-07-17T12:24:38;101971.13;;;27.62;29.95
10460;BME280;54412;51.206;6.888;2022-07-17T12:27:08;101970.22;;;27.71;29.73
10460;BME280;54412;51.206;6.888;2022-07-17T12:29:35;101968.59;;;27.78;29.43
10460;BME280;54412;51.206;6.888;2022-07-17T12:32:04;101965.81;;;27.70;29.29
10460;BME280;54412;51.206;6.888;2022-07-17T12:34:30;101962.00;;;27.98;29.67
10460;BME280;54412;51.206;6.888;2022-07-17T12:36:56;101962.31;;;28.13;28.68
10460;BME280;54412;51.206;6.888;2022-07-17T12:39:22;101964.25;;;28.20;28.14
10460;BME280;54412;51.206;6.888;2022-07-17T12:41:47;101963.78;;;28.07;28.49
10460;BME280;54412;51.206;6.888;2022-07-17T12:44:13;101967.91;;;28.37;28.04
10460;BME280;54412;51.206;6.888;2022-07-17T12:46:39;101966.16;;;28.28;27.91
10460;BME280;54412;51.206;6.888;2022-07-17T12:49:04;101963.00;;;28.15;27.20
10460;BME280;54412;51.206;6.888;2022-07-17T12:51:30;101958.72;;;28.12;28.67
10460;BME280;54412;51.206;6.888;2022-07-17T12:53:57;101959.22;;;28.08;27.93
10460;BME280;54412;51.206;6.888;2022-07-17T12:56:23;101961.03;;;27.99;27.66
10460;BME280;54412;51.206;6.888;2022-07-17T12:58:49;101959.84;;;27.84;27.76
10460;BME280;54412;51.206;6.888;2022-07-17T13:01:16;101955.13;;;27.68;27.60
10460;BME280;54412;51.206;6.888;2022-07-17T13:03:42;101954.59;;;27.65;28.58
10460;BME280;54412;51.206;6.888;2022-07-17T13:06:09;101952.22;;;27.35;29.25
10460;BME280;54412;51.206;6.888;2022-07-17T13:08:35;101949.31;;;27.81;29.14
10460;BME280;54412;51.206;6.888;2022-07-17T13:11:03;101948.78;;;27.77;27.86
10460;BME280;54412;51.206;6.888;2022-07-17T13:13:30;101947.84;;;28.04;28.33